Terminal Aerodrome Forecast
Issued by NWS

Home | Current Version | Previous Version | Text Only | Print | Product List | Glossary Off
Versions: 1 2 3 4 5 6 7 8 9 10 11 12 13 14 15 16 17 18 19

000
FTUS43 KBIS 192300
TAFJMS
TAF
KJMS 192325Z 2000/2024 18007KT P6SM SCT120
     FM200700 19009KT P6SM VCTS SCT080 BKN100CB
     FM201100 26009KT P6SM SCT100=

USA.gov is the U.S. government's official web portal to all federal, state and local government web resources and services.